This is the latest recevied weather packets stored in our database for station/object LRBM. If no packets are shown the sender has not sent any weather packets the latest 1 day(s).
| Time | Temp. | Humidity | Pressure | Rain* | Wind** | Luminosity | Snow |
|---|---|---|---|---|---|---|---|
| 1836274091 | 12.22° C | 94% | 1028 hPa | - | 3.13 m/s, 90° | - | - |
| 1778051915 | 20° C | 40% | 1013 hPa | - | 2.24 m/s, 90° | - | - |
| 1778051015 | 20° C | 40% | 1013 hPa | - | 2.24 m/s, 90° | - | - |
| 1778050115 | 18.89° C | 46% | 1013 hPa | - | 2.24 m/s, 90° | - | - |
| 1778049215 | 18.89° C | 46% | 1013 hPa | - | 2.24 m/s, 90° | - | - |
| 1778048315 | 17.22° C | 52% | 1013 hPa | - | 1.34 m/s, 100° | - | - |
| 1778047417 | 17.22° C | 52% | 1013 hPa | - | 1.34 m/s, 100° | - | - |
| 1778046517 | 16.11° C | 52% | 1013 hPa | - | 2.24 m/s, 90° | - | - |
| 1778045624 | 16.11° C | 52% | 1013 hPa | - | 2.24 m/s, 90° | - | - |
| 1778044716 | 13.89° C | 59% | 1013 hPa | - | 2.24 m/s, 70° | - | - |
| 1778043829 | 13.89° C | 59% | 1013 hPa | - | 2.24 m/s, 70° | - | - |
| 1778042931 | 12.22° C | 67% | 1013 hPa | - | 1.34 m/s, 90° | - | - |
| 1778042019 | 12.22° C | 67% | 1013 hPa | - | 1.34 m/s, 90° | - | - |
| 1778041116 | 10° C | 71% | 1013 hPa | - | 2.24 m/s, 80° | - | - |
| 1778040215 | 10° C | 71% | 1013 hPa | - | 2.24 m/s, 80° | - | - |
| 1778008715 | 17.78° C | 43% | 1011 hPa | - | 1.34 m/s, 50° | - | - |
| 1778007815 | 17.78° C | 43% | 1011 hPa | - | 1.34 m/s, 50° | - | - |
| 1778006916 | 20° C | 38% | 1011 hPa | - | 2.68 m/s, 10° | - | - |
| 1778006016 | 20° C | 38% | 1011 hPa | - | 2.68 m/s, 10° | - | - |
| 1778005116 | 20° C | 40% | 1011 hPa | - | 2.24 m/s, 10° | - | - |
| 1778004215 | 20° C | 40% | 1011 hPa | - | 2.24 m/s, 10° | - | - |
| 1778003313 | 21.11° C | 40% | 1011 hPa | - | 2.24 m/s, 30° | - | - |
| 1778002415 | 21.11° C | 40% | 1011 hPa | - | 2.24 m/s, 30° | - | - |
| 1778001515 | 22.78° C | 33% | 1011 hPa | - | 2.24 m/s, 350° | - | - |
| 1778000616 | 22.78° C | 33% | 1011 hPa | - | 2.24 m/s, 350° | - | - |
* Rain since midnight (hover to see other rain measurements)
** Current wind speed in m/s (hover to see current wind gust speed)